createdAt,value
2018-12-18T00:01:00.824Z,15.78
2018-12-18T00:03:28.283Z,19.82
2018-12-18T00:05:55.763Z,13.60
2018-12-18T00:08:23.213Z,14.65
2018-12-18T00:10:52.689Z,14.73
2018-12-18T00:13:20.171Z,14.47
2018-12-18T00:15:47.731Z,13.13
2018-12-18T00:18:15.188Z,13.62
2018-12-18T00:20:42.653Z,14.05
2018-12-18T00:23:10.098Z,14.63
2018-12-18T00:25:37.547Z,15.60
2018-12-18T00:28:05.019Z,17.12
2018-12-18T00:30:32.486Z,15.08
2018-12-18T00:32:59.974Z,18.00
2018-12-18T00:35:27.434Z,20.27
2018-12-18T00:37:54.899Z,17.85
2018-12-18T00:40:22.519Z,22.80
2018-12-18T00:42:49.999Z,14.50
2018-12-18T00:45:17.438Z,12.40
2018-12-18T00:47:44.993Z,18.60
2018-12-18T00:50:12.462Z,17.02
2018-12-18T00:52:39.962Z,14.73
2018-12-18T00:55:07.958Z,20.08
2018-12-18T00:57:35.522Z,16.73
2018-12-18T01:00:04.830Z,17.80
2018-12-18T01:02:32.293Z,18.20
2018-12-18T01:04:59.749Z,24.45
2018-12-18T01:07:27.237Z,22.77
2018-12-18T01:09:54.687Z,19.02
2018-12-18T01:12:22.165Z,18.10
2018-12-18T01:14:49.614Z,16.12
2018-12-18T01:17:17.085Z,16.60
2018-12-18T01:19:44.544Z,20.50
2018-12-18T01:22:12.144Z,28.25
2018-12-18T01:24:39.599Z,27.90
2018-12-18T01:27:07.125Z,24.45
2018-12-18T01:29:34.601Z,34.23
2018-12-18T01:32:02.053Z,29.25
2018-12-18T01:34:29.531Z,29.15
2018-12-18T01:36:56.994Z,33.42
2018-12-18T01:39:24.643Z,48.00
2018-12-18T01:41:52.682Z,37.98
2018-12-18T01:44:20.248Z,28.85
2018-12-18T01:46:47.776Z,27.02
2018-12-18T01:49:15.346Z,28.42
2018-12-18T01:51:42.840Z,22.70
2018-12-18T01:54:10.305Z,27.75
2018-12-18T01:56:37.798Z,25.00
2018-12-18T01:59:05.243Z,38.05
2018-12-18T02:01:32.707Z,26.20
2018-12-18T02:04:05.964Z,28.20
2018-12-18T02:06:29.803Z,20.85
2018-12-18T02:08:57.250Z,24.18
2018-12-18T02:11:25.021Z,22.05
2018-12-18T02:13:52.466Z,20.50
2018-12-18T02:16:19.946Z,29.67
2018-12-18T02:18:47.405Z,28.57
2018-12-18T02:21:14.877Z,28.98
2018-12-18T02:23:42.337Z,21.57
2018-12-18T02:26:09.834Z,27.30
2018-12-18T02:28:37.294Z,19.35
2018-12-18T02:31:04.778Z,20.88
2018-12-18T02:33:32.218Z,18.32
2018-12-18T02:35:59.690Z,17.77
2018-12-18T02:38:27.145Z,16.85
2018-12-18T02:40:54.627Z,18.12
2018-12-18T02:43:22.070Z,18.25
2018-12-18T02:45:49.545Z,20.85
2018-12-18T02:48:17.687Z,23.32
2018-12-18T02:50:45.165Z,17.98
2018-12-18T02:53:12.726Z,21.17
2018-12-18T02:55:40.206Z,17.17
2018-12-18T02:58:07.673Z,26.30
2018-12-18T03:00:35.138Z,25.62
2018-12-18T03:03:02.638Z,28.45
2018-12-18T03:05:30.096Z,25.37
2018-12-18T03:07:57.573Z,30.72
2018-12-18T03:10:25.025Z,27.48
2018-12-18T03:12:52.714Z,26.90
2018-12-18T03:15:20.266Z,30.50
2018-12-18T03:17:47.717Z,36.15
2018-12-18T03:20:15.180Z,34.05
2018-12-18T03:22:42.646Z,27.58
2018-12-18T03:25:10.098Z,27.30
2018-12-18T03:27:37.556Z,25.85
2018-12-18T03:30:05.715Z,29.55
2018-12-18T03:32:34.250Z,26.85
2018-12-18T03:35:01.801Z,27.02
2018-12-18T03:37:29.326Z,25.88
2018-12-18T03:39:57.594Z,31.90
2018-12-18T03:42:25.038Z,59.98
2018-12-18T03:44:52.511Z,95.35
2018-12-18T03:47:19.980Z,77.78
2018-12-18T03:49:47.441Z,68.87
2018-12-18T03:52:14.890Z,140.55
2018-12-18T03:54:42.353Z,114.25
2018-12-18T03:57:09.818Z,101.25
2018-12-18T03:59:37.342Z,95.85
2018-12-18T04:02:04.799Z,99.13
2018-12-18T04:04:35.604Z,94.85
2018-12-18T04:07:01.726Z,80.35
2018-12-18T04:09:29.193Z,86.60
2018-12-18T04:12:02.269Z,95.03
2018-12-18T04:14:29.831Z,73.75
2018-12-18T04:16:57.293Z,48.98
2018-12-18T04:19:24.849Z,70.75
2018-12-18T04:21:52.378Z,63.48
2018-12-18T04:24:19.951Z,43.73
2018-12-18T04:26:47.517Z,41.68
2018-12-18T04:29:14.993Z,38.85
2018-12-18T04:31:42.541Z,44.13
2018-12-18T04:34:10.018Z,52.73
2018-12-18T04:36:37.471Z,23.27
2018-12-18T04:39:05.856Z,71.05
2018-12-18T04:41:33.419Z,69.82
2018-12-18T04:44:00.866Z,24.95
2018-12-18T04:46:28.338Z,34.40
2018-12-18T04:48:55.800Z,30.95
2018-12-18T04:51:23.258Z,36.95
2018-12-18T04:53:50.714Z,25.80
2018-12-18T04:56:18.179Z,29.07
2018-12-18T04:58:45.632Z,38.38
2018-12-18T05:01:13.114Z,25.23
2018-12-18T05:03:40.561Z,20.27
2018-12-18T05:06:08.058Z,14.87
2018-12-18T05:08:35.507Z,34.18
2018-12-18T05:11:03.069Z,33.45
2018-12-18T05:13:30.627Z,31.95
2018-12-18T05:15:58.097Z,37.58
2018-12-18T05:18:25.560Z,28.67
2018-12-18T05:20:53.020Z,33.70
2018-12-18T05:23:21.117Z,22.40
2018-12-18T05:25:48.563Z,38.00
2018-12-18T05:28:16.332Z,29.05
2018-12-18T05:30:43.873Z,48.20
2018-12-18T05:33:11.346Z,46.83
2018-12-18T05:35:38.793Z,27.93
2018-12-18T05:38:06.267Z,15.13
2018-12-18T05:40:33.773Z,41.65
2018-12-18T05:43:01.238Z,24.70
2018-12-18T05:45:28.692Z,21.07
2018-12-18T05:47:56.157Z,18.40
2018-12-18T05:50:23.606Z,24.77
2018-12-18T05:52:51.065Z,26.12
2018-12-18T05:55:18.537Z,23.50
2018-12-18T05:57:45.997Z,27.50
2018-12-18T06:00:13.471Z,30.97
2018-12-18T06:02:40.920Z,17.35
2018-12-18T06:05:08.406Z,18.50
2018-12-18T06:07:35.846Z,32.63
2018-12-18T06:10:03.763Z,21.73
2018-12-18T06:12:31.247Z,21.05
2018-12-18T06:14:58.751Z,23.40
2018-12-18T06:17:26.226Z,19.23
2018-12-18T06:19:53.701Z,22.48
2018-12-18T06:22:21.198Z,9.43
2018-12-18T06:24:49.410Z,21.65
2018-12-18T06:27:16.927Z,20.40
2018-12-18T06:29:44.366Z,20.52
2018-12-18T06:32:11.823Z,21.57
2018-12-18T06:34:39.329Z,17.52
2018-12-18T06:37:06.799Z,18.17
2018-12-18T06:39:34.353Z,22.40
2018-12-18T06:42:01.878Z,17.92
2018-12-18T06:44:29.358Z,27.62
2018-12-18T06:46:56.823Z,23.65
2018-12-18T06:49:24.332Z,23.92
2018-12-18T06:51:51.806Z,19.30
2018-12-18T06:54:19.350Z,28.75
2018-12-18T06:56:46.823Z,26.27
2018-12-18T06:59:14.785Z,40.30
2018-12-18T07:01:42.263Z,25.85
2018-12-18T07:04:09.725Z,48.50
2018-12-18T07:06:37.437Z,47.83
2018-12-18T07:09:07.386Z,53.02
2018-12-18T07:11:34.865Z,49.63
2018-12-18T07:14:02.394Z,51.25
2018-12-18T07:16:29.869Z,43.83
2018-12-18T07:18:57.387Z,35.48
2018-12-18T07:21:24.861Z,77.15
2018-12-18T07:23:52.316Z,28.52
2018-12-18T07:26:19.791Z,20.17
2018-12-18T07:28:47.237Z,26.20
2018-12-18T07:31:14.714Z,44.98
2018-12-18T07:33:42.187Z,44.53
2018-12-18T07:36:09.678Z,30.62
2018-12-18T07:38:37.149Z,42.55
2018-12-18T07:41:04.594Z,35.38
2018-12-18T07:43:32.085Z,24.15
2018-12-18T07:45:59.534Z,19.77
2018-12-18T07:48:27.009Z,39.60
2018-12-18T07:50:54.470Z,38.33
2018-12-18T07:53:21.956Z,35.08
2018-12-18T07:55:49.410Z,33.58
2018-12-18T07:58:16.994Z,57.20
2018-12-18T08:00:44.455Z,52.53
2018-12-18T08:03:12.213Z,20.10
2018-12-18T08:05:39.662Z,31.35
2018-12-18T08:08:07.180Z,35.58
2018-12-18T08:10:34.643Z,23.45
2018-12-18T08:13:02.098Z,19.35
2018-12-18T08:15:29.629Z,23.27
2018-12-18T08:17:57.078Z,51.23
2018-12-18T08:20:24.554Z,54.90
2018-12-18T08:22:52.694Z,48.75
2018-12-18T08:25:20.142Z,32.25
2018-12-18T08:27:47.631Z,22.30
2018-12-18T08:30:15.105Z,29.87
2018-12-18T08:32:42.561Z,51.73
2018-12-18T08:35:10.049Z,36.95
2018-12-18T08:37:37.525Z,29.70
2018-12-18T08:40:06.638Z,34.20
2018-12-18T08:42:34.100Z,52.95
2018-12-18T08:45:01.570Z,35.85
2018-12-18T08:47:29.034Z,70.55
2018-12-18T08:49:56.503Z,75.70
2018-12-18T08:52:23.959Z,19.77
2018-12-18T08:54:51.448Z,28.15
2018-12-18T08:57:18.937Z,30.88
2018-12-18T08:59:46.414Z,51.13
2018-12-18T09:02:13.936Z,73.17
2018-12-18T09:04:41.447Z,28.85
2018-12-18T09:07:09.090Z,27.82
2018-12-18T09:09:36.548Z,32.03
2018-12-18T09:12:04.081Z,30.08
2018-12-18T09:14:31.545Z,39.05
2018-12-18T09:17:02.244Z,17.17
2018-12-18T09:19:29.841Z,15.45
2018-12-18T09:21:57.313Z,31.73
2018-12-18T09:24:24.765Z,35.73
2018-12-18T09:26:52.252Z,51.92
2018-12-18T09:29:19.702Z,22.75
2018-12-18T09:31:47.245Z,24.98
2018-12-18T09:34:14.717Z,23.27
2018-12-18T09:36:42.188Z,22.98
2018-12-18T09:39:18.569Z,17.75
2018-12-18T09:41:46.636Z,16.17
2018-12-18T09:44:17.105Z,19.98
2018-12-18T09:46:44.695Z,21.50
2018-12-18T09:49:12.150Z,26.20
2018-12-18T09:51:39.606Z,19.52
2018-12-18T09:54:07.173Z,21.00
2018-12-18T09:56:36.598Z,23.67
2018-12-18T09:59:04.082Z,16.35
2018-12-18T10:01:31.546Z,17.67
2018-12-18T10:03:58.996Z,15.75
2018-12-18T10:06:26.458Z,17.80
2018-12-18T10:08:54.006Z,15.50
2018-12-18T10:11:22.346Z,17.48
2018-12-18T10:13:49.805Z,17.77
2018-12-18T10:16:17.323Z,23.38
2018-12-18T10:18:44.825Z,34.20
2018-12-18T10:21:12.824Z,24.35
2018-12-18T10:23:40.296Z,34.45
2018-12-18T10:26:07.766Z,45.90
2018-12-18T10:28:35.245Z,39.80
2018-12-18T10:31:02.708Z,30.25
2018-12-18T10:33:30.192Z,34.30
2018-12-18T10:36:03.030Z,32.90
2018-12-18T10:38:27.326Z,41.18
2018-12-18T10:40:55.481Z,27.15
2018-12-18T10:43:22.938Z,36.13
2018-12-18T10:45:50.410Z,40.48
2018-12-18T10:48:17.869Z,23.12
2018-12-18T10:50:45.334Z,57.65
2018-12-18T10:53:12.815Z,61.30
2018-12-18T10:55:40.525Z,43.58
2018-12-18T10:58:08.557Z,50.58
2018-12-18T11:00:41.635Z,62.15
2018-12-18T11:03:09.088Z,41.68
2018-12-18T11:05:36.680Z,24.67
2018-12-18T11:08:04.149Z,28.95
2018-12-18T11:10:31.623Z,56.48
2018-12-18T11:13:04.857Z,40.78
2018-12-18T11:15:32.319Z,39.42
2018-12-18T11:17:59.769Z,28.40
2018-12-18T11:20:27.243Z,48.40
2018-12-18T11:22:54.718Z,48.15
2018-12-18T11:25:22.589Z,47.20
2018-12-18T11:27:50.485Z,49.70
2018-12-18T11:30:17.968Z,58.45
2018-12-18T11:32:45.439Z,53.40
2018-12-18T11:35:12.905Z,55.80
2018-12-18T11:37:40.389Z,33.63
2018-12-18T11:40:08.494Z,48.92
2018-12-18T11:42:36.035Z,63.13
2018-12-18T11:45:03.929Z,35.40
2018-12-18T11:47:31.603Z,36.80
2018-12-18T11:49:59.064Z,45.60
2018-12-18T11:52:26.547Z,32.58
2018-12-18T11:54:54.002Z,41.10
2018-12-18T11:57:21.530Z,37.48
2018-12-18T11:59:48.961Z,36.10
2018-12-18T12:02:16.431Z,30.35
2018-12-18T12:04:43.875Z,34.03
2018-12-18T12:07:11.347Z,34.73
2018-12-18T12:09:38.814Z,33.42
2018-12-18T12:12:06.291Z,34.98
2018-12-18T12:14:33.739Z,38.05
2018-12-18T12:17:01.632Z,33.98
2018-12-18T12:19:29.322Z,31.37
2018-12-18T12:21:56.769Z,39.65
2018-12-18T12:24:24.234Z,32.25
2018-12-18T12:26:53.776Z,34.88
2018-12-18T12:29:21.265Z,29.77
2018-12-18T12:31:48.728Z,26.55
2018-12-18T12:34:16.192Z,33.90
2018-12-18T12:36:43.667Z,30.27
2018-12-18T12:39:11.144Z,41.98
2018-12-18T12:41:38.606Z,43.52
2018-12-18T12:44:06.054Z,50.30
2018-12-18T12:46:33.529Z,32.42
2018-12-18T12:49:02.949Z,64.30
2018-12-18T12:51:30.446Z,35.68
2018-12-18T12:53:57.906Z,37.00
2018-12-18T12:56:25.358Z,35.55
2018-12-18T12:58:52.864Z,40.78
2018-12-18T13:01:20.384Z,71.33
2018-12-18T13:03:47.875Z,46.68
2018-12-18T13:06:15.395Z,44.80
2018-12-18T13:08:42.846Z,36.50
2018-12-18T13:11:10.319Z,43.95
2018-12-18T13:13:37.846Z,32.42
2018-12-18T13:16:05.325Z,33.75
2018-12-18T13:18:32.789Z,29.65
2018-12-18T13:21:00.248Z,30.02
2018-12-18T13:23:27.712Z,28.23
2018-12-18T13:25:55.188Z,34.65
2018-12-18T13:28:22.728Z,64.77
2018-12-18T13:30:50.204Z,29.98
2018-12-18T13:33:17.668Z,28.60
2018-12-18T13:35:45.149Z,27.70
2018-12-18T13:38:12.699Z,29.90
2018-12-18T13:40:40.145Z,32.20
2018-12-18T13:43:07.635Z,27.70
2018-12-18T13:45:35.074Z,29.67
2018-12-18T13:48:02.555Z,30.95
2018-12-18T13:50:30.006Z,32.53
2018-12-18T13:52:57.485Z,26.65
2018-12-18T13:55:24.931Z,30.15
2018-12-18T13:57:52.419Z,36.03
2018-12-18T14:00:19.942Z,25.17
2018-12-18T14:02:47.467Z,35.08
2018-12-18T14:05:15.120Z,27.93
2018-12-18T14:07:42.594Z,28.17
2018-12-18T14:10:10.149Z,21.48
2018-12-18T14:12:37.616Z,21.02
2018-12-18T14:15:05.241Z,21.48
2018-12-18T14:17:32.706Z,21.50
2018-12-18T14:20:00.164Z,27.67
2018-12-18T14:22:27.729Z,26.05
2018-12-18T14:24:55.232Z,23.70
2018-12-18T14:27:22.798Z,26.45
2018-12-18T14:29:50.264Z,21.02
2018-12-18T14:32:17.761Z,19.60
2018-12-18T14:34:45.274Z,25.23
2018-12-18T14:37:12.786Z,23.20
2018-12-18T14:39:40.336Z,23.52
2018-12-18T14:42:07.878Z,28.67
2018-12-18T14:44:35.350Z,24.60
2018-12-18T14:47:02.806Z,28.23
2018-12-18T14:49:30.284Z,29.85
2018-12-18T14:51:58.502Z,25.00
2018-12-18T14:54:26.392Z,27.30
2018-12-18T14:56:53.909Z,29.67
2018-12-18T14:59:21.652Z,23.90
2018-12-18T15:01:49.107Z,29.45
2018-12-18T15:04:16.585Z,25.55
2018-12-18T15:06:44.051Z,31.82
2018-12-18T15:09:11.563Z,28.32
2018-12-18T15:11:39.020Z,30.23
2018-12-18T15:14:06.475Z,27.60
2018-12-18T15:16:33.974Z,30.77
2018-12-18T15:19:01.441Z,37.40
2018-12-18T15:21:28.949Z,31.93
2018-12-18T15:23:56.407Z,32.45
2018-12-18T15:26:23.910Z,39.50
2018-12-18T15:28:51.392Z,29.30
2018-12-18T15:31:18.886Z,32.60
2018-12-18T15:33:46.334Z,30.62
2018-12-18T15:36:13.798Z,31.65
2018-12-18T15:38:41.277Z,34.63
2018-12-18T15:41:08.741Z,28.17
2018-12-18T15:43:36.186Z,39.63
2018-12-18T15:46:03.731Z,40.15
2018-12-18T15:48:31.182Z,28.32
2018-12-18T15:50:58.654Z,27.73
2018-12-18T15:53:26.139Z,35.03
2018-12-18T15:55:54.356Z,30.43
2018-12-18T15:58:21.829Z,28.95
2018-12-18T16:00:50.103Z,29.27
2018-12-18T16:03:17.602Z,31.60
2018-12-18T16:05:45.040Z,33.28
2018-12-18T16:08:12.696Z,40.98
2018-12-18T16:10:40.670Z,36.08
2018-12-18T16:13:09.065Z,35.90
2018-12-18T16:15:36.592Z,37.55
2018-12-18T16:18:04.090Z,41.63
2018-12-18T16:20:31.543Z,40.98
2018-12-18T16:22:59.027Z,37.28
2018-12-18T16:25:26.492Z,39.05
2018-12-18T16:27:53.967Z,37.80
2018-12-18T16:30:21.677Z,35.13
2018-12-18T16:32:49.153Z,40.90
2018-12-18T16:35:16.621Z,42.23
2018-12-18T16:37:44.090Z,40.90
2018-12-18T16:40:11.577Z,36.68
2018-12-18T16:42:39.045Z,33.70
2018-12-18T16:45:06.591Z,40.25
2018-12-18T16:47:34.041Z,39.80
2018-12-18T16:50:01.513Z,37.93
2018-12-18T16:52:28.996Z,41.18
2018-12-18T16:54:56.476Z,38.98
2018-12-18T16:57:23.924Z,43.28
2018-12-18T16:59:51.490Z,45.98
2018-12-18T17:02:19.124Z,49.90
2018-12-18T17:04:46.585Z,43.50
2018-12-18T17:07:14.052Z,53.28
2018-12-18T17:09:41.529Z,45.55
2018-12-18T17:12:08.973Z,48.55
2018-12-18T17:14:36.561Z,38.95
2018-12-18T17:17:04.034Z,47.25
2018-12-18T17:19:31.505Z,40.40
2018-12-18T17:21:58.967Z,41.70
2018-12-18T17:24:26.444Z,36.05
2018-12-18T17:26:53.903Z,45.03
2018-12-18T17:29:22.221Z,39.65
2018-12-18T17:31:49.775Z,51.02
2018-12-18T17:34:17.258Z,48.58
2018-12-18T17:36:44.817Z,40.75
2018-12-18T17:39:12.273Z,52.60
2018-12-18T17:41:39.754Z,43.30
2018-12-18T17:44:07.215Z,55.90
2018-12-18T17:46:35.103Z,55.95
2018-12-18T17:49:02.612Z,44.70
2018-12-18T17:51:30.098Z,54.83
2018-12-18T17:53:58.390Z,51.33
2018-12-18T17:56:25.850Z,50.08
2018-12-18T17:58:53.314Z,60.33
2018-12-18T18:01:20.865Z,128.55
2018-12-18T18:03:48.317Z,71.75
2018-12-18T18:06:16.023Z,64.50
2018-12-18T18:08:43.901Z,56.33
